Time;durP1;ratioP1;P1;durP2;ratioP2;P2;SDS_P1;SDS_P2;PMS_P1;PMS_P2;Temp;Humidity;BMP_temperature;BMP_pressure;BME280_temperature;BME280_humidity;BME280_pressure;Samples;Min_cycle;Max_cycle;Signal;HPM_P1;HPM_P2
2021/06/08 00:02:00;;;;;;;7.57;6.97;;;20.60;99.90;;;;;;5053453;28;20574;-75
2021/06/08 00:04:26;;;;;;;7.40;6.77;;;20.60;99.90;;;;;;5053823;28;20169;-76
2021/06/08 00:06:52;;;;;;;8.93;8.20;;;20.60;99.90;;;;;;5052982;28;20600;-76
2021/06/08 00:09:18;;;;;;;8.50;7.80;;;20.60;99.90;;;;;;5035823;28;20157;-76
2021/06/08 00:11:43;;;;;;;8.20;7.50;;;20.60;99.90;;;;;;5035594;28;20240;-76
2021/06/08 00:14:09;;;;;;;8.90;8.07;;;20.60;99.90;;;;;;5053445;28;20180;-76
2021/06/08 00:16:35;;;;;;;7.60;6.90;;;20.60;99.90;;;;;;5052964;28;20309;-78
2021/06/08 00:19:00;;;;;;;9.00;8.20;;;20.60;99.90;;;;;;5052466;28;20172;-77
2021/06/08 00:21:26;;;;;;;8.83;8.13;;;20.60;99.90;;;;;;5018876;28;20169;-77
2021/06/08 00:23:52;;;;;;;9.07;8.07;;;20.70;99.90;;;;;;5053708;28;20727;-78
2021/06/08 00:26:18;;;;;;;9.50;8.70;;;20.60;99.90;;;;;;5052784;28;20904;-79
2021/06/08 00:28:43;;;;;;;9.63;8.83;;;20.70;99.90;;;;;;5053009;28;20263;-78
2021/06/08 00:31:09;;;;;;;9.07;8.37;;;20.70;99.90;;;;;;5053147;28;20629;-78
2021/06/08 00:33:35;;;;;;;9.90;9.00;;;20.60;99.90;;;;;;5018920;28;20181;-78
2021/06/08 00:36:01;;;;;;;9.20;8.37;;;20.60;99.90;;;;;;5053452;28;20624;-78
2021/06/08 00:38:26;;;;;;;9.40;8.50;;;20.70;99.90;;;;;;5034619;28;20256;-77
2021/06/08 00:40:52;;;;;;;8.37;7.67;;;20.60;99.90;;;;;;5052863;28;20169;-78
2021/06/08 00:43:24;;;;;;;8.10;7.40;;;20.70;99.90;;;;;;5053056;28;20575;-79
2021/06/08 00:45:52;;;;;;;7.97;7.37;;;20.70;99.90;;;;;;5053228;28;20243;-79
2021/06/08 00:48:17;;;;;;;8.13;7.50;;;20.70;99.90;;;;;;5036348;28;20682;-78
2021/06/08 00:50:43;;;;;;;9.50;8.70;;;20.70;99.90;;;;;;5035104;28;21024;-79
2021/06/08 00:53:09;;;;;;;8.30;7.60;;;20.60;99.90;;;;;;5052723;28;20566;-79
2021/06/08 00:55:35;;;;;;;8.53;7.83;;;20.70;99.90;;;;;;5034969;28;20215;-78
2021/06/08 00:58:00;;;;;;;8.70;7.90;;;20.70;99.90;;;;;;5034604;28;20205;-78
2021/06/08 01:00:28;;;;;;;9.80;8.90;;;20.60;99.90;;;;;;5035227;28;20623;-79
2021/06/08 01:02:53;;;;;;;9.17;8.37;;;20.60;99.90;;;;;;5053041;28;20161;-78
2021/06/08 01:05:19;;;;;;;9.83;8.17;;;20.60;99.90;;;;;;5055673;28;20631;-77
2021/06/08 01:07:45;;;;;;;8.90;8.20;;;20.60;99.90;;;;;;5060837;28;20200;-77
2021/06/08 01:10:11;;;;;;;9.67;8.77;;;20.60;99.90;;;;;;5043430;28;20208;-78
2021/06/08 01:12:37;;;;;;;8.60;7.87;;;20.60;99.90;;;;;;5044499;28;20618;-78
2021/06/08 01:15:05;;;;;;;9.70;8.90;;;20.60;99.90;;;;;;5061850;28;20631;-78
2021/06/08 01:17:31;;;;;;;9.87;9.07;;;20.60;99.90;;;;;;5062057;28;20189;-78
2021/06/08 01:19:58;;;;;;;7.73;7.10;;;20.50;99.90;;;;;;5055838;28;20601;-78
2021/06/08 01:22:25;;;;;;;9.77;8.97;;;20.50;99.90;;;;;;5055234;28;20534;-78
2021/06/08 01:24:51;;;;;;;10.43;9.53;;;20.50;99.90;;;;;;5053593;28;20574;-78
2021/06/08 01:27:21;;;;;;;10.00;9.10;;;20.50;99.90;;;;;;5051945;28;20600;-78
2021/06/08 01:29:49;;;;;;;10.83;9.93;;;20.50;99.90;;;;;;5052463;28;20560;-79
2021/06/08 01:32:15;;;;;;;10.40;9.50;;;20.50;99.90;;;;;;5034739;28;20564;-78
2021/06/08 01:34:43;;;;;;;9.90;9.10;;;20.40;99.90;;;;;;5017826;28;20623;-78
2021/06/08 01:37:09;;;;;;;10.37;9.30;;;20.40;99.90;;;;;;5027578;28;20693;-78
2021/06/08 01:39:37;;;;;;;10.10;8.43;;;20.40;99.90;;;;;;5042173;28;20576;-78
2021/06/08 01:42:04;;;;;;;10.13;9.20;;;20.40;99.90;;;;;;5017646;28;20594;-78
2021/06/08 01:44:31;;;;;;;10.03;9.03;;;20.40;99.90;;;;;;5051766;28;20628;-78
2021/06/08 01:46:57;;;;;;;9.17;8.37;;;20.30;99.90;;;;;;5051433;28;20596;-78
2021/06/08 01:49:23;;;;;;;9.70;8.83;;;20.40;99.90;;;;;;5017577;28;20968;-79
2021/06/08 01:52:03;;;;;;;11.33;10.07;;;20.30;99.90;;;;;;5051565;28;20644;-78
2021/06/08 01:54:35;;;;;;;9.27;8.47;;;20.30;99.90;;;;;;5051547;28;20188;-78
2021/06/08 01:57:15;;;;;;;9.67;8.83;;;20.30;99.90;;;;;;5033306;28;20955;-78
2021/06/08 01:59:59;;;;;;;10.20;9.20;;;20.20;99.90;;;;;;5051549;28;20682;-79
2021/06/08 02:02:30;;;;;;;11.70;10.70;;;20.20;99.90;;;;;;5051713;28;20690;-78
2021/06/08 02:05:35;;;;;;;10.30;9.40;;;20.20;99.90;;;;;;5051616;28;20659;-78
2021/06/08 02:08:27;;;;;;;9.33;8.50;;;20.10;99.90;;;;;;5047284;28;20659;-78
2021/06/08 02:11:07;;;;;;;10.27;9.37;;;20.10;99.90;;;;;;5033665;28;20590;-78
2021/06/08 02:13:51;;;;;;;9.70;8.80;;;20.10;99.90;;;;;;5051612;28;20579;-78
2021/06/08 02:16:23;;;;;;;10.40;9.30;;;20.10;99.90;;;;;;5051175;28;20698;-77
2021/06/08 02:18:51;;;;;;;10.30;9.27;;;20.10;99.90;;;;;;5051425;28;20571;-78
2021/06/08 02:21:26;;;;;;;10.50;9.50;;;20.10;99.90;;;;;;5051308;28;20666;-78
2021/06/08 02:23:53;;;;;;;10.60;9.70;;;20.00;99.90;;;;;;5051471;28;20647;-78
2021/06/08 02:26:22;;;;;;;10.23;9.30;;;20.10;99.90;;;;;;5051024;28;20974;-79
2021/06/08 02:28:49;;;;;;;9.77;8.80;;;20.10;99.90;;;;;;5051234;28;20564;-79
2021/06/08 02:31:17;;;;;;;11.27;10.13;;;20.00;99.90;;;;;;5033675;28;20789;-78
2021/06/08 02:33:46;;;;;;;10.50;9.50;;;20.10;99.90;;;;;;5051332;28;20926;-78
2021/06/08 02:36:13;;;;;;;11.30;10.40;;;20.00;99.90;;;;;;5033316;28;20615;-79
2021/06/08 02:38:40;;;;;;;9.90;8.87;;;20.00;99.90;;;;;;5050841;28;20571;-79
2021/06/08 02:41:06;;;;;;;10.20;9.23;;;20.10;99.90;;;;;;5051271;28;20562;-79
2021/06/08 02:43:35;;;;;;;10.70;9.80;;;20.10;99.90;;;;;;5054755;28;20567;-78
2021/06/08 02:46:02;;;;;;;10.10;9.27;;;20.10;99.90;;;;;;5036967;28;21212;-79
2021/06/08 02:48:28;;;;;;;10.30;9.37;;;20.00;99.90;;;;;;5036920;28;20556;-79
2021/06/08 02:50:55;;;;;;;11.60;10.60;;;20.00;99.90;;;;;;5037157;28;21005;-79
2021/06/08 02:53:22;;;;;;;10.53;9.63;;;20.10;99.90;;;;;;5054713;28;20555;-79
2021/06/08 02:55:50;;;;;;;11.83;10.90;;;20.10;99.90;;;;;;5037026;28;20672;-77
2021/06/08 02:58:16;;;;;;;11.77;10.67;;;20.10;99.90;;;;;;5053931;28;21231;-77
2021/06/08 03:00:42;;;;;;;11.97;10.87;;;20.10;99.90;;;;;;5042388;28;21153;-77
2021/06/08 03:03:10;;;;;;;11.23;10.13;;;20.10;99.90;;;;;;5054842;28;20567;-77
2021/06/08 03:05:44;;;;;;;11.80;10.70;;;20.10;99.90;;;;;;5054789;28;20605;-77
2021/06/08 03:08:22;;;;;;;11.40;10.40;;;20.10;99.90;;;;;;5019846;28;20642;-78
2021/06/08 03:11:18;;;;;;;10.80;9.80;;;20.10;99.90;;;;;;5055374;28;20571;-78
2021/06/08 03:13:46;;;;;;;13.53;12.33;;;20.10;99.90;;;;;;5020220;28;21146;-78
2021/06/08 03:16:13;;;;;;;13.00;11.87;;;20.00;99.90;;;;;;5054360;28;20615;-78
2021/06/08 03:18:40;;;;;;;13.57;12.23;;;20.00;99.90;;;;;;5054131;28;20678;-78
2021/06/08 03:21:23;;;;;;;11.83;10.73;;;20.00;99.90;;;;;;5036843;28;20998;-78
2021/06/08 03:23:55;;;;;;;12.50;11.40;;;20.00;99.90;;;;;;5054631;28;20567;-77
2021/06/08 03:26:22;;;;;;;12.43;11.23;;;19.90;99.90;;;;;;5036479;28;20630;-78
2021/06/08 03:28:51;;;;;;;11.67;10.53;;;20.00;99.90;;;;;;5054576;28;20564;-77
2021/06/08 03:31:19;;;;;;;13.20;12.10;;;19.90;99.90;;;;;;5054613;28;20571;-79
2021/06/08 03:33:46;;;;;;;13.30;12.13;;;19.90;99.90;;;;;;5020119;28;20704;-78
2021/06/08 03:36:13;;;;;;;12.57;11.37;;;19.90;99.90;;;;;;5054477;28;20611;-78
2021/06/08 03:38:41;;;;;;;13.97;12.57;;;19.90;99.90;;;;;;5020730;28;20625;-78
2021/06/08 03:41:10;;;;;;;14.10;13.00;;;19.80;99.90;;;;;;5037515;28;20926;-78
2021/06/08 03:43:37;;;;;;;14.53;13.23;;;19.80;99.90;;;;;;5038237;28;20666;-78
2021/06/08 03:46:04;;;;;;;13.03;11.43;;;19.80;99.90;;;;;;5056251;28;20559;-78
2021/06/08 03:48:29;;;;;;;11.37;10.47;;;19.70;99.90;;;;;;5055606;28;20660;-78
2021/06/08 03:50:56;;;;;;;12.97;11.77;;;19.70;99.90;;;;;;5037993;28;20571;-78
2021/06/08 03:53:22;;;;;;;12.87;11.77;;;19.70;99.90;;;;;;5035901;28;20165;-78
2021/06/08 03:55:51;;;;;;;15.73;14.33;;;19.70;99.90;;;;;;5036421;28;20962;-78
2021/06/08 03:58:20;;;;;;;13.57;12.37;;;19.70;99.90;;;;;;5035121;28;20242;-78
2021/06/08 04:00:47;;;;;;;13.57;12.30;;;19.60;99.90;;;;;;5053939;28;20599;-78
2021/06/08 04:03:14;;;;;;;14.30;12.97;;;19.60;99.90;;;;;;5026080;28;20949;-77
2021/06/08 04:05:41;;;;;;;12.73;11.60;;;19.70;99.90;;;;;;5092753;22;20753;-85
2021/06/08 04:08:10;;;;;;;14.43;13.17;;;19.60;99.90;;;;;;5055341;28;20602;-84
2021/06/08 04:10:36;;;;;;;15.30;12.97;;;19.70;99.90;;;;;;5074284;28;20567;-85
2021/06/08 04:13:05;;;;;;;14.30;13.00;;;19.70;99.90;;;;;;5055536;28;20622;-85
2021/06/08 04:15:33;;;;;;;14.37;12.97;;;19.70;99.90;;;;;;5055675;28;20638;-85
2021/06/08 04:18:00;;;;;;;14.20;12.80;;;19.80;99.90;;;;;;5038735;28;20589;-85
2021/06/08 04:20:27;;;;;;;15.10;13.70;;;19.80;99.90;;;;;;5056166;28;20577;-85
2021/06/08 04:22:56;;;;;;;15.37;13.87;;;19.80;99.90;;;;;;5055651;28;20657;-85
2021/06/08 04:25:23;;;;;;;13.93;12.60;;;19.90;99.90;;;;;;5053807;28;20630;-85
2021/06/08 04:27:50;;;;;;;13.57;12.43;;;20.00;99.90;;;;;;5038833;28;20599;-86
2021/06/08 04:30:17;;;;;;;12.77;11.60;;;20.00;99.90;;;;;;5073293;28;20601;-86
2021/06/08 04:32:45;;;;;;;15.60;12.90;;;20.00;99.90;;;;;;5073343;28;20570;-86
2021/06/08 04:35:11;;;;;;;14.67;13.50;;;20.10;99.90;;;;;;5055495;28;20630;-86
2021/06/08 04:37:37;;;;;;;13.57;12.43;;;20.10;99.90;;;;;;5072916;28;20577;-86
2021/06/08 04:40:07;;;;;;;13.13;11.83;;;20.10;99.90;;;;;;5038976;28;20567;-86
2021/06/08 04:42:35;;;;;;;13.40;12.30;;;20.20;99.90;;;;;;5077641;28;20204;-86
2021/06/08 04:45:00;;;;;;;13.80;12.50;;;20.30;99.90;;;;;;5040103;28;20717;-87
2021/06/08 04:47:26;;;;;;;14.03;12.63;;;20.30;99.90;;;;;;5073936;28;21194;-81
2021/06/08 04:49:53;;;;;;;13.23;11.87;;;20.30;99.90;;;;;;5073215;28;20168;-81
2021/06/08 04:52:19;;;;;;;15.13;13.57;;;20.40;99.90;;;;;;5073301;28;20563;-80
2021/06/08 04:54:45;;;;;;;14.43;12.97;;;20.40;99.90;;;;;;5074941;28;20679;-81
2021/06/08 04:57:13;;;;;;;15.00;13.60;;;20.50;99.90;;;;;;5060268;28;20582;-82
2021/06/08 05:00:04;;;;;;;14.40;13.10;;;20.60;99.90;;;;;;5078308;28;20617;-82
2021/06/08 05:02:48;;;;;;;14.27;12.90;;;20.60;99.90;;;;;;5064033;28;20595;-81
2021/06/08 05:05:21;;;;;;;13.00;11.80;;;20.60;99.90;;;;;;5081334;28;20629;-81
2021/06/08 05:07:58;;;;;;;13.70;12.50;;;20.70;99.90;;;;;;5088511;28;20643;-81
2021/06/08 05:10:26;;;;;;;14.63;13.33;;;20.80;99.90;;;;;;5068342;28;20574;-80
2021/06/08 05:12:53;;;;;;;13.83;12.60;;;20.90;99.90;;;;;;5066938;28;20605;-81
2021/06/08 05:15:21;;;;;;;14.53;13.13;;;21.00;99.90;;;;;;5061091;28;20638;-81
2021/06/08 05:17:49;;;;;;;14.23;13.03;;;21.00;99.90;;;;;;5074504;28;20577;-81
2021/06/08 05:20:17;;;;;;;14.13;12.73;;;21.10;99.90;;;;;;5076196;28;20600;-82
2021/06/08 05:22:44;;;;;;;14.50;13.30;;;21.20;99.90;;;;;;5083043;28;20574;-83
2021/06/08 05:25:11;;;;;;;13.90;12.67;;;21.20;99.90;;;;;;5077889;28;21102;-82
2021/06/08 05:27:37;;;;;;;12.03;11.03;;;21.30;99.90;;;;;;5077751;28;20569;-82
2021/06/08 05:30:04;;;;;;;15.43;13.70;;;21.30;99.90;;;;;;5084853;28;20562;-81
2021/06/08 05:32:30;;;;;;;15.63;14.10;;;21.30;99.90;;;;;;5105748;28;20562;-82
2021/06/08 05:34:55;;;;;;;14.83;13.37;;;21.40;99.90;;;;;;5094540;28;20963;-82
2021/06/08 05:37:22;;;;;;;14.23;12.73;;;21.40;99.90;;;;;;5054023;28;20168;-81
2021/06/08 05:39:49;;;;;;;13.23;11.87;;;21.40;99.90;;;;;;5075534;28;20184;-81
2021/06/08 05:42:20;;;;;;;14.37;13.07;;;21.40;99.90;;;;;;5073234;28;20597;-81
2021/06/08 05:44:46;;;;;;;14.93;13.63;;;21.40;99.90;;;;;;5081339;28;20621;-81
2021/06/08 05:47:12;;;;;;;12.10;10.93;;;21.50;99.90;;;;;;5085677;28;21231;-82
2021/06/08 05:49:39;;;;;;;13.60;12.30;;;21.50;99.90;;;;;;5058129;28;20652;-83
2021/06/08 05:52:07;;;;;;;13.60;12.50;;;21.60;99.90;;;;;;5083490;28;20172;-82
2021/06/08 05:54:34;;;;;;;12.83;11.20;;;21.60;99.90;;;;;;5041992;28;20614;-82
2021/06/08 05:57:01;;;;;;;13.23;11.97;;;21.70;99.90;;;;;;5067545;28;20590;-82
2021/06/08 05:59:27;;;;;;;13.40;12.30;;;21.70;99.90;;;;;;5088790;28;20609;-81
2021/06/08 06:01:55;;;;;;;12.87;10.97;;;21.80;99.90;;;;;;5066958;28;20593;-81
2021/06/08 06:04:24;;;;;;;12.37;11.17;;;21.90;99.90;;;;;;5062304;28;21168;-81
2021/06/08 06:06:51;;;;;;;14.30;12.83;;;21.90;99.90;;;;;;5073900;28;20593;-81
2021/06/08 06:09:20;;;;;;;13.70;12.37;;;22.00;99.90;;;;;;5063976;28;20637;-81
2021/06/08 06:11:48;;;;;;;14.40;13.00;;;22.10;99.90;;;;;;5098855;28;20565;-82
2021/06/08 06:14:23;;;;;;;12.80;11.67;;;22.30;99.90;;;;;;5091823;28;20606;-83
2021/06/08 06:16:53;;;;;;;12.27;11.27;;;22.40;99.90;;;;;;5094555;28;20604;-83
2021/06/08 06:19:44;;;;;;;12.90;11.60;;;22.60;99.90;;;;;;5062900;28;20693;-84
2021/06/08 06:22:10;;;;;;;12.87;11.67;;;22.80;99.90;;;;;;5099543;28;20585;-90
2021/06/08 06:24:37;;;;;;;13.10;11.97;;;23.20;99.90;;;;;;5080952;28;20602;-89
2021/06/08 06:27:07;;;;;;;12.60;11.50;;;23.60;99.90;;;;;;5050662;28;20573;-88
2021/06/08 06:29:34;;;;;;;12.60;11.50;;;24.00;99.90;;;;;;5083815;28;20566;-89
2021/06/08 06:32:00;;;;;;;13.20;12.10;;;24.40;99.90;;;;;;5073644;28;20562;-88
2021/06/08 06:34:28;;;;;;;12.57;11.27;;;24.90;99.90;;;;;;5066208;28;20680;-88
2021/06/08 06:36:57;;;;;;;14.17;12.77;;;25.30;99.90;;;;;;5074524;28;20668;-88
2021/06/08 06:39:27;;;;;;;13.30;10.87;;;25.80;99.90;;;;;;5090524;28;20565;-87
2021/06/08 06:42:01;;;;;;;11.03;10.20;;;26.20;99.90;;;;;;5088258;28;20682;-88
2021/06/08 06:44:32;;;;;;;14.47;13.17;;;26.50;99.90;;;;;;5087924;28;20609;-87
2021/06/08 06:47:01;;;;;;;14.27;13.07;;;26.70;99.90;;;;;;5088805;28;20569;-87
2021/06/08 06:49:27;;;;;;;13.60;12.50;;;26.90;99.90;;;;;;5092920;28;20546;-83
2021/06/08 06:51:55;;;;;;;14.57;13.20;;;27.00;99.90;;;;;;5092539;28;20578;-83
2021/06/08 06:54:22;;;;;;;12.80;11.57;;;27.10;99.90;;;;;;5110432;28;20179;-83
2021/06/08 06:56:49;;;;;;;11.90;10.97;;;27.20;99.90;;;;;;5101909;28;20581;-85
2021/06/08 06:59:16;;;;;;;13.10;11.93;;;27.20;99.90;;;;;;5117760;28;20545;-85
2021/06/08 07:01:44;;;;;;;14.70;13.37;;;27.20;99.90;;;;;;5094355;28;20580;-84
2021/06/08 07:04:11;;;;;;;13.17;12.03;;;27.20;99.90;;;;;;5069209;28;20633;-83
2021/06/08 07:06:37;;;;;;;14.30;13.10;;;27.20;99.90;;;;;;5106507;28;20594;-82
2021/06/08 07:09:03;;;;;;;13.03;12.03;;;27.10;99.90;;;;;;5112516;28;20593;-82
2021/06/08 07:11:33;;;;;;;13.07;11.80;;;27.10;99.90;;;;;;5099509;28;20578;-83
2021/06/08 07:14:00;;;;;;;13.23;12.03;;;27.10;99.90;;;;;;5115419;28;20584;-83
2021/06/08 07:16:27;;;;;;;13.27;12.20;;;27.00;99.90;;;;;;5097952;28;20616;-84
2021/06/08 07:18:54;;;;;;;12.27;11.10;;;27.00;99.90;;;;;;5102812;28;20597;-83
2021/06/08 07:21:23;;;;;;;12.00;10.90;;;27.00;99.90;;;;;;5090055;28;21161;-83
2021/06/08 07:23:54;;;;;;;12.03;11.03;;;27.00;99.90;;;;;;5076535;28;20586;-83
2021/06/08 07:26:22;;;;;;;10.83;9.47;;;27.00;99.90;;;;;;5085726;28;20570;-83
2021/06/08 07:28:49;;;;;;;11.73;10.67;;;27.00;99.90;;;;;;5073449;28;20569;-83
2021/06/08 07:31:44;;;;;;;11.63;10.63;;;27.10;99.90;;;;;;5072978;28;20686;-84
2021/06/08 07:34:24;;;;;;;11.50;10.60;;;27.20;99.90;;;;;;5095294;28;20550;-83
2021/06/08 07:36:51;;;;;;;10.87;10.00;;;27.40;99.90;;;;;;5074245;28;20571;-83
2021/06/08 07:39:28;;;;;;;11.43;10.43;;;27.50;99.90;;;;;;5091420;28;20575;-83
2021/06/08 07:42:10;;;;;;;10.80;9.90;;;27.60;99.90;;;;;;5076003;28;20562;-82
2021/06/08 07:44:45;;;;;;;10.80;9.80;;;27.70;99.90;;;;;;5060596;28;20713;-83
2021/06/08 07:47:15;;;;;;;11.10;10.20;;;27.70;99.90;;;;;;5074993;28;20566;-82
2021/06/08 07:49:42;;;;;;;11.80;10.80;;;27.70;99.90;;;;;;5055308;28;20567;-84
2021/06/08 07:52:09;;;;;;;11.00;10.20;;;27.80;99.90;;;;;;5058875;28;20570;-84
2021/06/08 07:54:48;;;;;;;12.47;11.47;;;27.70;99.90;;;;;;5056871;28;20617;-84
2021/06/08 07:57:14;;;;;;;11.07;10.07;;;27.70;99.90;;;;;;5074102;28;20546;-84
2021/06/08 07:59:42;;;;;;;11.83;10.83;;;27.70;99.90;;;;;;5073682;28;20606;-84
2021/06/08 08:02:12;;;;;;;9.40;8.70;;;27.70;99.90;;;;;;5071765;28;20582;-84
2021/06/08 08:04:39;;;;;;;11.40;10.40;;;27.70;99.90;;;;;;5064627;28;21234;-83
2021/06/08 08:07:05;;;;;;;10.30;9.50;;;27.70;99.90;;;;;;5074337;28;20577;-84
2021/06/08 08:09:32;;;;;;;10.30;9.50;;;27.70;99.90;;;;;;5040570;28;20598;-85
2021/06/08 08:11:58;;;;;;;10.30;9.50;;;27.70;99.90;;;;;;5073772;28;20594;-85
2021/06/08 08:14:26;;;;;;;10.30;9.40;;;27.70;99.90;;;;;;5074001;28;20590;-82
2021/06/08 08:16:54;;;;;;;9.37;8.57;;;27.70;99.90;;;;;;5074625;28;20593;-81
2021/06/08 08:19:21;;;;;;;9.43;8.57;;;27.70;99.90;;;;;;5064332;28;20654;-81
2021/06/08 08:21:47;;;;;;;8.87;8.03;;;27.70;99.90;;;;;;5083890;28;20587;-82
2021/06/08 08:24:14;;;;;;;10.87;9.97;;;27.70;99.90;;;;;;5085878;28;20598;-81
2021/06/08 08:26:39;;;;;;;10.13;9.20;;;27.70;99.90;;;;;;5062801;28;20574;-82
2021/06/08 08:29:06;;;;;;;9.77;8.87;;;27.80;99.90;;;;;;5073874;28;20638;-82
2021/06/08 08:31:33;;;;;;;10.63;8.50;;;28.00;99.90;;;;;;5073831;28;20790;-82
2021/06/08 08:34:00;;;;;;;9.07;8.27;;;28.20;99.90;;;;;;5072927;28;20591;-83
2021/06/08 08:36:33;;;;;;;9.80;9.00;;;28.60;99.90;;;;;;5073601;28;21154;-83
2021/06/08 08:39:00;;;;;;;9.53;8.63;;;29.10;99.90;;;;;;5058287;28;20561;-83
2021/06/08 08:41:28;;;;;;;10.13;9.23;;;29.50;99.90;;;;;;5079191;28;20566;-83
2021/06/08 08:43:54;;;;;;;9.40;8.70;;;30.00;99.90;;;;;;5055856;28;20677;-83
2021/06/08 08:46:21;;;;;;;8.87;8.10;;;30.40;99.90;;;;;;5073944;28;20609;-83
2021/06/08 08:48:53;;;;;;;9.87;8.97;;;30.80;99.90;;;;;;5057059;28;20183;-83
2021/06/08 08:51:20;;;;;;;8.33;7.53;;;31.10;99.50;;;;;;5056992;28;20567;-83
2021/06/08 08:53:47;;;;;;;8.13;7.43;;;31.20;98.30;;;;;;5057150;28;21394;-83
2021/06/08 08:56:15;;;;;;;7.00;6.27;;;31.50;98.00;;;;;;5079358;28;20634;-83
2021/06/08 08:58:42;;;;;;;7.07;6.47;;;31.70;97.40;;;;;;5079198;28;20649;-83
2021/06/08 09:01:08;;;;;;;4.83;4.50;;;31.90;96.10;;;;;;5086676;28;20555;-83
2021/06/08 09:03:36;;;;;;;5.90;5.27;;;32.00;95.30;;;;;;5043192;28;20977;-83
2021/06/08 09:06:02;;;;;;;5.23;4.83;;;32.00;94.20;;;;;;5077529;28;20614;-83
2021/06/08 09:08:27;;;;;;;7.33;4.73;;;32.00;93.60;;;;;;5059929;28;20583;-83
2021/06/08 09:10:54;;;;;;;3.50;3.20;;;31.90;91.90;;;;;;5060469;28;21022;-83
2021/06/08 09:13:21;;;;;;;5.50;5.10;;;31.80;91.70;;;;;;5075855;28;20184;-82
2021/06/08 09:15:47;;;;;;;5.63;5.13;;;31.70;90.80;;;;;;5040553;28;20662;-81
2021/06/08 09:18:13;;;;;;;5.60;5.00;;;31.50;90.40;;;;;;5056264;28;20569;-81
2021/06/08 09:20:39;;;;;;;5.70;5.20;;;31.30;90.20;;;;;;5075861;28;20169;-82
2021/06/08 09:23:07;;;;;;;4.50;4.10;;;31.20;90.00;;;;;;5058997;28;20572;-81
2021/06/08 09:25:39;;;;;;;6.63;6.03;;;31.00;90.00;;;;;;5076086;28;20300;-82
2021/06/08 09:28:25;;;;;;;5.47;5.03;;;30.90;90.40;;;;;;5074527;28;20563;-83
2021/06/08 09:31:01;;;;;;;6.80;5.20;;;30.90;90.50;;;;;;5078687;28;20571;-83
2021/06/08 09:33:34;;;;;;;5.17;4.73;;;30.80;89.40;;;;;;5080912;28;21182;-83
2021/06/08 09:36:08;;;;;;;3.90;3.60;;;30.90;88.20;;;;;;5062918;28;20626;-83
2021/06/08 09:38:44;;;;;;;5.03;4.63;;;31.10;90.40;;;;;;5045662;28;20581;-84
2021/06/08 09:41:11;;;;;;;6.17;5.60;;;31.30;88.90;;;;;;5061716;28;20851;-84
2021/06/08 09:43:50;;;;;;;5.87;5.37;;;31.40;87.80;;;;;;5082410;28;20570;-85
2021/06/08 09:46:17;;;;;;;5.50;5.10;;;31.20;87.20;;;;;;5063004;28;20668;-83
2021/06/08 09:49:09;;;;;;;4.97;4.57;;;31.10;85.80;;;;;;5061434;28;20564;-84
2021/06/08 09:51:53;;;;;;;4.70;4.30;;;30.90;85.90;;;;;;5078673;28;20597;-84
2021/06/08 09:54:45;;;;;;;4.00;3.70;;;30.70;84.80;;;;;;5081637;28;20696;-84
2021/06/08 09:57:16;;;;;;;4.90;4.50;;;30.50;84.20;;;;;;5079045;28;20873;-84
2021/06/08 10:00:00;;;;;;;6.50;6.00;;;30.30;84.20;;;;;;5056890;28;20555;-84
2021/06/08 10:02:35;;;;;;;5.30;4.90;;;30.10;84.50;;;;;;5054788;28;20567;-84
2021/06/08 10:05:25;;;;;;;6.30;5.80;;;30.00;85.50;;;;;;5072162;28;20661;-83
2021/06/08 10:07:53;;;;;;;3.83;3.53;;;30.10;85.50;;;;;;5072208;28;20640;-84
2021/06/08 10:10:21;;;;;;;3.67;3.37;;;30.20;84.30;;;;;;5054052;28;20616;-84
2021/06/08 10:12:53;;;;;;;4.63;4.20;;;30.40;83.20;;;;;;5074697;28;20578;-84
2021/06/08 10:15:19;;;;;;;4.53;4.23;;;30.60;84.30;;;;;;5073005;28;20626;-82
2021/06/08 10:17:45;;;;;;;5.77;5.17;;;31.20;86.30;;;;;;5071787;28;20912;-84
2021/06/08 10:20:23;;;;;;;5.77;5.27;;;31.80;86.20;;;;;;5054624;28;20187;-85
2021/06/08 10:22:49;;;;;;;7.00;6.40;;;32.20;84.90;;;;;;5055036;28;20544;-84
2021/06/08 10:25:16;;;;;;;6.57;6.00;;;32.60;83.70;;;;;;5054781;28;20596;-84
2021/06/08 10:27:42;;;;;;;6.67;6.07;;;32.90;82.80;;;;;;5059218;28;20938;-82
2021/06/08 10:30:09;;;;;;;7.63;6.93;;;33.10;80.50;;;;;;5052892;28;20596;-83
2021/06/08 10:32:36;;;;;;;7.00;6.40;;;33.10;78.70;;;;;;5054431;28;20671;-84
2021/06/08 10:35:02;;;;;;;5.70;4.90;;;33.00;77.60;;;;;;5071788;28;20962;-83
2021/06/08 10:37:28;;;;;;;4.37;4.07;;;32.90;76.50;;;;;;5079342;28;20558;-84
2021/06/08 10:39:57;;;;;;;4.60;4.20;;;32.70;75.70;;;;;;5061556;28;20724;-84
2021/06/08 10:42:22;;;;;;;4.60;4.20;;;32.60;75.10;;;;;;5084299;28;20591;-83
2021/06/08 10:44:49;;;;;;;5.50;5.10;;;32.40;73.90;;;;;;5077921;28;20618;-85
2021/06/08 10:47:42;;;;;;;5.53;5.07;;;32.30;73.80;;;;;;5070299;28;20192;-84
2021/06/08 10:50:32;;;;;;;4.37;4.07;;;32.50;74.60;;;;;;5069523;28;20562;-84
2021/06/08 10:53:34;;;;;;;5.13;4.73;;;32.40;73.50;;;;;;5073481;28;20628;-83
2021/06/08 10:56:32;;;;;;;5.03;4.63;;;32.40;72.40;;;;;;5080866;28;20627;-83
2021/06/08 10:59:37;;;;;;;5.40;5.00;;;32.20;72.00;;;;;;5085056;28;20594;-83
2021/06/08 11:02:47;;;;;;;5.77;5.27;;;32.00;70.80;;;;;;5098762;28;20557;-84
2021/06/08 11:05:15;;;;;;;5.00;4.50;;;31.80;70.70;;;;;;5079150;28;20613;-84
2021/06/08 11:07:47;;;;;;;5.10;4.60;;;31.60;71.20;;;;;;5099510;28;20576;-83
2021/06/08 11:10:25;;;;;;;5.13;4.43;;;31.30;70.90;;;;;;5084083;28;20581;-84
2021/06/08 11:13:12;;;;;;;6.60;6.10;;;31.10;71.20;;;;;;5078569;28;20584;-85
2021/06/08 11:15:42;;;;;;;6.77;5.10;;;30.90;71.20;;;;;;5092956;28;20624;-83
2021/06/08 11:18:18;;;;;;;4.40;4.00;;;30.70;71.30;;;;;;5102827;28;20565;-85
2021/06/08 11:20:47;;;;;;;5.37;4.97;;;30.60;71.80;;;;;;5055861;28;20681;-84
2021/06/08 11:23:31;;;;;;;5.20;4.83;;;30.50;72.30;;;;;;5080511;28;20733;-84
2021/06/08 11:26:00;;;;;;;5.80;5.37;;;30.50;73.20;;;;;;5061506;28;20999;-83
2021/06/08 11:28:43;;;;;;;6.17;5.63;;;30.40;73.20;;;;;;5087418;28;20567;-84
2021/06/08 11:31:09;;;;;;;6.63;6.13;;;30.40;73.70;;;;;;5067486;28;20594;-82
2021/06/08 11:33:37;;;;;;;5.90;5.30;;;30.40;73.50;;;;;;5057319;28;20575;-83
2021/06/08 11:36:28;;;;;;;6.47;5.97;;;30.50;74.00;;;;;;5056054;28;20711;-83
2021/06/08 11:39:19;;;;;;;6.60;6.03;;;30.40;73.00;;;;;;5045083;28;20693;-83
2021/06/08 11:42:06;;;;;;;6.03;5.53;;;30.30;73.30;;;;;;5074588;28;20562;-83
2021/06/08 11:44:33;;;;;;;6.23;5.57;;;30.30;73.10;;;;;;5074206;28;20640;-84
2021/06/08 11:47:05;;;;;;;6.73;6.00;;;30.20;72.90;;;;;;5039413;28;21050;-83
2021/06/08 11:49:31;;;;;;;7.07;6.37;;;30.20;73.20;;;;;;5039499;28;20570;-84
2021/06/08 11:52:09;;;;;;;6.53;4.77;;;30.10;72.60;;;;;;5056379;28;20614;-83
2021/06/08 11:54:35;;;;;;;6.30;5.80;;;30.00;72.50;;;;;;5074256;28;20590;-82
2021/06/08 11:57:04;;;;;;;5.60;5.10;;;30.00;72.50;;;;;;5073597;28;20570;-83
2021/06/08 11:59:58;;;;;;;5.73;5.33;;;29.90;72.10;;;;;;5039563;28;20594;-83
2021/06/08 12:02:30;;;;;;;7.37;4.90;;;29.80;71.60;;;;;;5051000;28;21172;-83
2021/06/08 12:05:23;;;;;;;5.30;4.90;;;29.70;71.60;;;;;;5045412;28;20626;-83
2021/06/08 12:07:51;;;;;;;5.10;4.40;;;29.70;71.60;;;;;;5040647;28;20582;-83
2021/06/08 12:10:38;;;;;;;4.93;4.20;;;29.70;71.80;;;;;;5057801;28;20617;-82
2021/06/08 12:13:04;;;;;;;3.10;2.90;;;29.70;73.10;;;;;;5056910;28;20581;-82
2021/06/08 12:15:41;;;;;;;5.47;4.97;;;29.90;73.10;;;;;;5038865;28;20653;-83
2021/06/08 12:18:23;;;;;;;5.30;3.67;;;30.10;73.80;;;;;;5039937;28;20574;-85
2021/06/08 12:20:49;;;;;;;7.03;4.37;;;30.20;72.90;;;;;;5040634;28;20574;-81
2021/06/08 12:23:35;;;;;;;4.30;4.00;;;30.50;73.50;;;;;;5075344;28;20911;-81
2021/06/08 12:26:28;;;;;;;5.60;4.60;;;30.60;72.20;;;;;;5056558;28;20204;-82
2021/06/08 12:29:11;;;;;;;3.67;3.13;;;30.70;71.50;;;;;;5037534;28;20586;-82
2021/06/08 12:31:37;;;;;;;6.73;3.43;;;30.70;71.20;;;;;;5056960;28;20579;-82
2021/06/08 12:34:10;;;;;;;3.77;3.47;;;30.80;70.70;;;;;;5056038;28;20589;-82
2021/06/08 12:36:44;;;;;;;7.30;4.63;;;30.80;69.50;;;;;;5056108;28;20995;-81
2021/06/08 12:39:15;;;;;;;4.47;4.17;;;30.80;69.70;;;;;;5057101;28;20616;-81
2021/06/08 12:41:42;;;;;;;3.97;3.57;;;30.80;69.10;;;;;;5061047;28;20690;-74
2021/06/08 12:44:08;;;;;;;3.50;2.87;;;30.80;69.20;;;;;;5055403;28;20610;-75
2021/06/08 12:46:38;;;;;;;4.90;3.97;;;30.90;69.20;;;;;;5073061;28;20571;-75
2021/06/08 12:49:15;;;;;;;3.60;3.30;;;30.80;68.80;;;;;;5055414;28;20181;-76
2021/06/08 12:51:46;;;;;;;3.80;2.90;;;30.80;69.00;;;;;;5055761;28;20591;-85
2021/06/08 12:54:44;;;;;;;4.17;3.43;;;30.80;69.30;;;;;;5058182;28;21172;-83
2021/06/08 12:57:28;;;;;;;4.43;4.03;;;30.80;69.70;;;;;;5039712;28;20672;-83